createdAt,value
2023-03-20T00:01:36.555Z,99081.34
2023-03-20T00:06:43.978Z,99079.93
2023-03-20T00:11:53.552Z,99077.50
2023-03-20T00:17:01.158Z,99079.75
2023-03-20T00:22:10.226Z,99083.73
2023-03-20T00:27:19.228Z,99084.80
2023-03-20T00:32:27.128Z,99081.42
2023-03-20T00:37:34.858Z,99075.23
2023-03-20T00:42:43.612Z,99069.06
2023-03-20T00:47:53.274Z,99068.45
2023-03-20T00:53:01.790Z,99066.42
2023-03-20T00:58:12.921Z,99066.95
2023-03-20T01:03:23.542Z,99067.88
2023-03-20T01:08:30.965Z,99067.27
2023-03-20T01:13:40.012Z,99065.27
2023-03-20T01:18:47.724Z,99059.42
2023-03-20T01:23:55.307Z,99065.46
2023-03-20T01:29:02.936Z,99064.84
2023-03-20T01:34:12.597Z,99058.51
2023-03-20T01:39:22.169Z,99056.43
2023-03-20T01:44:32.869Z,99055.19
2023-03-20T01:50:15.043Z,99058.96
2023-03-20T01:55:25.245Z,99057.70
2023-03-20T02:00:33.877Z,99055.89
2023-03-20T02:05:44.264Z,99056.79
2023-03-20T02:10:52.151Z,99056.11
2023-03-20T02:16:07.718Z,99058.46
2023-03-20T02:21:51.600Z,99056.09
2023-03-20T02:27:11.366Z,99058.59
2023-03-20T02:32:52.826Z,99060.14
2023-03-20T02:38:39.640Z,99055.46
2023-03-20T02:43:54.729Z,99057.79
2023-03-20T02:49:08.522Z,99058.65
2023-03-20T02:54:25.702Z,99054.88
2023-03-20T02:59:41.004Z,99051.25
2023-03-20T03:04:54.863Z,99046.88
2023-03-20T03:10:07.413Z,99041.08
2023-03-20T03:15:18.935Z,99041.95
2023-03-20T03:20:30.475Z,99034.50
2023-03-20T03:25:41.456Z,99035.40
2023-03-20T03:30:50.191Z,99033.27
2023-03-20T03:36:03.383Z,99034.38
2023-03-20T03:41:25.583Z,99034.50
2023-03-20T03:46:39.726Z,99032.90
2023-03-20T03:51:52.383Z,99032.19
2023-03-20T03:57:04.178Z,99030.92
2023-03-20T04:02:13.113Z,99032.60
2023-03-20T04:07:28.239Z,99033.17
2023-03-20T04:12:39.730Z,99032.02
2023-03-20T04:17:48.280Z,99032.80
2023-03-20T04:22:56.329Z,99037.48
2023-03-20T04:28:04.219Z,99036.60
2023-03-20T04:33:11.854Z,99035.37
2023-03-20T04:38:20.606Z,99033.17
2023-03-20T04:43:28.684Z,99036.95
2023-03-20T04:48:36.583Z,99038.92
2023-03-20T04:53:44.097Z,99040.21
2023-03-20T04:58:51.543Z,99042.05
2023-03-20T05:04:01.329Z,99043.91
2023-03-20T05:09:09.468Z,99039.27
2023-03-20T05:14:17.002Z,99044.27
2023-03-20T05:19:25.223Z,99048.15
2023-03-20T05:24:32.945Z,99049.67
2023-03-20T05:29:40.224Z,99054.05
2023-03-20T05:34:47.651Z,99058.95
2023-03-20T05:39:55.213Z,99060.96
2023-03-20T05:45:02.545Z,99060.19
2023-03-20T05:50:11.895Z,99060.39
2023-03-20T05:55:19.783Z,99060.22
2023-03-20T06:00:28.727Z,99066.80
2023-03-20T06:05:37.277Z,99068.44
2023-03-20T06:10:45.080Z,99067.70
2023-03-20T06:15:52.838Z,99070.98
2023-03-20T06:21:02.245Z,99073.27
2023-03-20T06:26:10.265Z,99073.14
2023-03-20T06:31:17.903Z,99078.27
2023-03-20T06:36:25.807Z,99083.80
2023-03-20T06:41:34.889Z,99085.89
2023-03-20T06:46:42.798Z,99084.33
2023-03-20T06:51:51.895Z,99087.29
2023-03-20T06:56:59.840Z,99089.68
2023-03-20T07:02:08.645Z,99093.55
2023-03-20T07:07:16.224Z,99103.78
2023-03-20T07:12:28.908Z,99104.46
2023-03-20T07:17:36.290Z,99105.14
2023-03-20T07:22:44.312Z,99101.27
2023-03-20T07:27:51.577Z,99099.91
2023-03-20T07:32:58.934Z,99096.31
2023-03-20T07:44:14.704Z,99093.30
2023-03-20T07:49:23.023Z,99100.54
2023-03-20T07:54:30.553Z,99107.96
2023-03-20T07:59:38.189Z,99108.15
2023-03-20T08:04:46.723Z,99112.06
2023-03-20T08:09:54.551Z,99113.23
2023-03-20T08:15:02.344Z,99115.48
2023-03-20T08:20:12.662Z,99115.52
2023-03-20T08:25:20.479Z,99112.26
2023-03-20T08:30:28.764Z,99113.61
2023-03-20T08:35:37.002Z,99111.27
2023-03-20T08:40:45.559Z,99113.84
2023-03-20T08:45:53.714Z,99115.61
2023-03-20T08:51:01.612Z,99113.30
2023-03-20T08:56:11.564Z,99119.20
2023-03-20T09:01:19.882Z,99117.59
2023-03-20T09:06:27.324Z,99109.92
2023-03-20T09:11:35.080Z,99108.09
2023-03-20T09:16:43.024Z,99105.33
2023-03-20T09:21:50.705Z,99102.01
2023-03-20T09:26:58.986Z,99097.87
2023-03-20T09:32:06.845Z,99095.08
2023-03-20T09:37:14.789Z,99098.38
2023-03-20T09:42:34.223Z,99106.06
2023-03-20T09:47:51.500Z,99107.27
2023-03-20T10:02:58.472Z,99117.64
2023-03-20T10:08:06.594Z,99118.95
2023-03-20T10:13:45.091Z,99119.58
2023-03-20T10:18:58.039Z,99114.52
2023-03-20T10:24:04.854Z,99110.98
2023-03-20T10:29:23.139Z,99108.89
2023-03-20T10:34:53.870Z,99103.73
2023-03-20T10:40:14.517Z,99103.56
2023-03-20T10:45:31.497Z,99102.83
2023-03-20T10:50:42.147Z,99100.51
2023-03-20T10:55:48.073Z,99092.90
2023-03-20T11:00:57.102Z,99088.23
2023-03-20T11:06:09.853Z,99088.23
2023-03-20T11:11:21.231Z,99085.34
2023-03-20T11:16:31.135Z,99085.58
2023-03-20T11:21:46.565Z,99083.73
2023-03-20T11:26:52.860Z,99073.50
2023-03-20T11:32:07.411Z,99067.54
2023-03-20T11:37:25.629Z,99068.89
2023-03-20T11:42:31.466Z,99070.67
2023-03-20T11:47:37.908Z,99069.70
2023-03-20T11:52:44.093Z,99069.91
2023-03-20T11:57:49.350Z,99067.05
2023-03-20T12:02:54.060Z,99059.91
2023-03-20T12:08:03.262Z,99047.42
2023-03-20T12:13:14.802Z,99045.75
2023-03-20T12:18:25.987Z,99045.53
2023-03-20T12:23:35.305Z,99043.80
2023-03-20T12:28:47.493Z,99040.55
2023-03-20T12:33:57.183Z,99043.81
2023-03-20T12:39:04.977Z,99042.81
2023-03-20T12:44:26.704Z,99038.09
2023-03-20T12:49:43.276Z,99034.36
2023-03-20T12:55:06.002Z,99027.66
2023-03-20T13:00:24.370Z,99022.06
2023-03-20T13:05:37.346Z,99025.79
2023-03-20T13:10:54.309Z,99025.13
2023-03-20T13:16:09.958Z,99021.46
2023-03-20T13:21:22.307Z,99016.93
2023-03-20T13:26:37.043Z,99008.84
2023-03-20T13:31:51.542Z,99010.02
2023-03-20T13:37:22.369Z,99004.38
2023-03-20T13:42:35.251Z,99004.56
2023-03-20T13:47:40.426Z,99002.85
2023-03-20T13:52:52.646Z,98998.08
2023-03-20T13:58:15.514Z,98998.89
2023-03-20T14:03:27.965Z,98993.41
2023-03-20T14:08:36.824Z,98993.86
2023-03-20T14:13:45.240Z,98997.04
2023-03-20T14:19:03.919Z,99003.29
2023-03-20T14:24:15.776Z,99006.41
2023-03-20T14:29:35.102Z,99007.27
2023-03-20T14:34:48.994Z,99008.73
2023-03-20T14:44:31.981Z,99007.91
2023-03-20T14:49:56.387Z,99010.67
2023-03-20T14:55:32.067Z,99009.10
2023-03-20T15:00:48.383Z,99004.02
2023-03-20T15:06:00.693Z,99006.27
2023-03-20T15:11:12.149Z,98997.46
2023-03-20T15:16:27.408Z,99009.19
2023-03-20T15:21:38.566Z,99005.73
2023-03-20T15:26:46.287Z,99007.31
2023-03-20T15:32:12.826Z,99005.17
2023-03-20T15:37:25.164Z,99008.91
2023-03-20T15:42:34.025Z,99009.93
2023-03-20T15:47:43.750Z,99013.73
2023-03-20T15:52:55.006Z,99016.83
2023-03-20T15:58:04.388Z,99013.48
2023-03-20T16:03:17.390Z,99012.04
2023-03-20T16:08:27.354Z,99010.68
2023-03-20T16:13:39.135Z,99015.15
2023-03-20T16:18:49.110Z,99017.89
2023-03-20T16:23:59.381Z,99024.81
2023-03-20T16:29:08.437Z,99024.36
2023-03-20T16:34:23.186Z,99023.80
2023-03-20T16:39:32.635Z,99025.41
2023-03-20T16:44:42.816Z,99023.00
2023-03-20T16:50:12.253Z,99027.55
2023-03-20T16:55:25.535Z,99024.42
2023-03-20T17:00:42.913Z,99021.94
2023-03-20T17:05:57.973Z,99020.09
2023-03-20T17:11:12.038Z,99012.80
2023-03-20T17:16:23.156Z,99014.24
2023-03-20T17:21:31.766Z,99014.40
2023-03-20T17:26:39.708Z,99017.60
2023-03-20T17:31:47.626Z,99021.12
2023-03-20T17:36:55.407Z,99027.84
2023-03-20T17:42:02.735Z,99030.66
2023-03-20T17:47:15.949Z,99033.77
2023-03-20T17:52:26.318Z,99036.92
2023-03-20T17:57:36.073Z,99030.23
2023-03-20T18:02:43.785Z,99030.64
2023-03-20T18:07:51.674Z,99032.63
2023-03-20T18:12:59.722Z,99034.91
2023-03-20T18:18:09.949Z,99034.48
2023-03-20T18:23:18.433Z,99036.08
2023-03-20T18:28:26.611Z,99038.11
2023-03-20T18:33:34.579Z,99037.67
2023-03-20T18:38:43.009Z,99046.13
2023-03-20T18:43:51.942Z,99047.98
2023-03-20T18:48:59.848Z,99044.45
2023-03-20T18:54:07.967Z,99044.90
2023-03-20T18:59:16.761Z,99041.77
2023-03-20T19:04:27.029Z,99042.68
2023-03-20T19:09:35.048Z,99043.05
2023-03-20T19:14:43.546Z,99040.08
2023-03-20T19:19:51.095Z,99043.53
2023-03-20T19:24:58.845Z,99042.90
2023-03-20T19:30:07.547Z,99041.83
2023-03-20T19:35:50.312Z,99041.30
2023-03-20T19:40:48.322Z,99043.16
2023-03-20T19:45:58.804Z,99046.27
2023-03-20T19:51:07.623Z,99050.07
2023-03-20T19:56:17.820Z,99050.30
2023-03-20T20:01:26.292Z,99050.86
2023-03-20T20:06:35.176Z,99047.86
2023-03-20T20:11:43.190Z,99043.58
2023-03-20T20:16:52.859Z,99037.07
2023-03-20T20:22:20.001Z,99037.29
2023-03-20T20:27:31.731Z,99036.85
2023-03-20T20:32:41.111Z,99034.29
2023-03-20T20:45:18.413Z,99024.79
2023-03-20T20:50:29.728Z,99025.45
2023-03-20T20:55:37.545Z,99023.89
2023-03-20T21:00:52.594Z,99024.90
2023-03-20T21:06:07.410Z,99027.07
2023-03-20T21:11:17.352Z,99029.15
2023-03-20T21:16:25.724Z,99025.59
2023-03-20T21:21:35.337Z,99022.65
2023-03-20T21:26:43.576Z,99023.82
2023-03-20T21:31:51.210Z,99033.02
2023-03-20T21:37:00.214Z,99027.50
2023-03-20T21:42:10.074Z,99025.88
2023-03-20T21:53:45.925Z,99027.39
2023-03-20T22:04:31.890Z,99033.63
2023-03-20T22:09:52.096Z,99037.64
2023-03-20T22:20:53.365Z,99038.91
2023-03-20T22:31:48.063Z,99040.49
2023-03-20T22:47:29.550Z,99048.10
2023-03-20T22:52:48.499Z,99047.58
2023-03-20T22:58:06.799Z,99049.83
2023-03-20T23:03:29.509Z,99057.55
2023-03-20T23:08:49.344Z,99057.11
2023-03-20T23:14:01.009Z,99058.98
2023-03-20T23:19:08.548Z,99055.35
2023-03-20T23:24:17.189Z,99054.98
2023-03-20T23:29:25.565Z,99050.17
2023-03-20T23:34:34.235Z,99043.58
2023-03-20T23:39:42.536Z,99034.74
2023-03-20T23:44:56.299Z,99028.83
2023-03-20T23:50:09.674Z,99025.80
2023-03-20T23:55:21.791Z,99020.98
